M C B H Kaneohe Bay, Hawaii
Current Conditions -  °F | °C
As of 4:57 AM on Thursday 23 Oct 2014 (Local Time) from PHNG Reporting Station
Overcast Overcast  
Wind Chill: 79°   Ceiling: 4100
Heat Index: 82°   Visibility: 10mi
Dew Point: 71°   Wind: 6mph
Humidity: 77%   Direction: 100°E
Pressure: 29.99"   Gusts: NA
Location:  21.4527°N, 157.772°W
Report Text: PHNG 231457Z 10005KT 10SM OVC041 26/22 A2999 RMK AO2 SLP151 60000 T02610217 55001 $
Loading
Personal Weather Stations






























Interactive Weather Map
Tropical Storm Tracking
New forecast layout! Learn more

10-Day Weather Forecast

Advertisements
Track Severe Weather on mobile